»·PEaware :: N261MG KMRY-KMRY

N261MG :: KMRY-KMRY

FLIGHT INFORMATION

Flight Status: Arrived
Operator: Privately registered:
United States
More flights under this callsign
Pilot: Marty O. (15602)
Aircraft: ECLIPSE 500
(EA50)
More flights by this aircraft type
Origin: KMRY Monterey Peninsula
United States
Destination: KMRY Monterey Peninsula
United States
More flights between these airports :: More routes between these airports
Route: +MRY5 SNS
File this flight plan on PilotEdge
Remarks:
Altitude:
(Current/Filed)
7,000ft
Speed:
(Current/Filed)
0kts
Departed: 19-Oct-20 08:52 PM
Arrived: 19-Oct-20 09:52 PM
Distance/Time
Traveled:
1nm/0:59
Distance/Time
To Go:
Arrived

Flight Plot

Page will automatically refresh every two minutes.

Flight plan parsing failed; only flown route is shown


Map Options




Map Legend


Flown Route
Filed Route
Departure Airport
Arrival Airport
Navaid (VOR, NDB)
Fix

Horizontal Profiles

Position Reports

Time Latitude Longitude Heading Altitude Ground
Speed
19-Oct-20 20:36 36.588680 -121.853653 293 258ft 0kts
19-Oct-20 20:37 36.588680 -121.853653 293 258ft 0kts
19-Oct-20 20:38 36.588680 -121.853653 293 258ft 0kts
19-Oct-20 20:39 36.588680 -121.853653 293 258ft 0kts
19-Oct-20 20:40 36.588680 -121.853653 293 258ft 0kts
19-Oct-20 20:41 36.588680 -121.853653 293 258ft 0kts
19-Oct-20 20:42 36.588680 -121.853653 293 258ft 0kts
19-Oct-20 20:43 36.588680 -121.853653 293 258ft 0kts
19-Oct-20 20:44 36.588680 -121.853653 293 258ft 0kts
19-Oct-20 20:45 36.588680 -121.853653 293 258ft 0kts
19-Oct-20 20:46 36.589041 -121.854226 324 258ft 0kts
19-Oct-20 20:47 36.589370 -121.855555 314 258ft 4kts
19-Oct-20 20:48 36.589907 -121.856286 26 258ft 0kts
19-Oct-20 20:49 36.589946 -121.856258 30 258ft 0kts
19-Oct-20 20:50 36.590611 -121.855826 30 258ft 7kts
19-Oct-20 20:51 36.580011 -121.828568 119 1118ft 155kts
19-Oct-20 20:52 36.605093 -121.799693 341 4279ft 171kts
19-Oct-20 20:53 36.653819 -121.818065 341 6794ft 216kts
19-Oct-20 20:54 36.707052 -121.875714 280 7647ft 306kts
19-Oct-20 20:55 36.720647 -121.969112 281 7002ft 211kts
19-Oct-20 20:56 36.714618 -122.017465 185 7003ft 126kts
19-Oct-20 20:57 36.680160 -122.016952 180 7025ft 153kts
19-Oct-20 20:59 36.632538 -122.015678 186 7002ft 158kts
19-Oct-20 21:00 36.627425 -122.063999 291 5643ft 188kts
19-Oct-20 21:01 36.651878 -122.112372 359 4275ft 159kts
19-Oct-20 21:02 36.657935 -122.063078 108 3010ft 171kts
19-Oct-20 21:03 36.642824 -122.009139 112 2610ft 171kts
19-Oct-20 21:04 36.614365 -122.022406 289 2605ft 161kts
19-Oct-20 21:05 36.629823 -122.075068 291 2609ft 161kts
19-Oct-20 21:06 36.660709 -122.078876 81 2601ft 168kts
19-Oct-20 21:07 36.646308 -122.022975 110 2608ft 170kts
19-Oct-20 21:08 36.628646 -121.968100 111 2176ft 172kts
19-Oct-20 21:09 36.614149 -121.924810 111 1451ft 126kts
19-Oct-20 21:10 36.601258 -121.886566 111 816ft 125kts
19-Oct-20 21:11 36.585216 -121.837744 104 740ft 198kts
19-Oct-20 21:12 36.625667 -121.770511 40 2181ft 282kts
19-Oct-20 21:13 36.702017 -121.777096 342 4501ft 263kts
19-Oct-20 21:14 36.773802 -121.803447 342 5001ft 261kts
19-Oct-20 21:15 36.831203 -121.768691 92 4992ft 277kts
19-Oct-20 21:16 36.777199 -121.705091 143 4992ft 277kts
19-Oct-20 21:17 36.724487 -121.657202 144 4983ft 187kts
19-Oct-20 21:17 36.692686 -121.628568 144 4995ft 174kts
19-Oct-20 21:19 36.655049 -121.578077 71 4984ft 174kts
19-Oct-20 21:19 36.683690 -121.579556 281 4986ft 166kts
19-Oct-20 21:20 36.688642 -121.636753 276 4991ft 166kts
19-Oct-20 21:21 36.659159 -121.652089 112 4984ft 177kts
19-Oct-20 21:22 36.658815 -121.590826 65 4982ft 173kts
19-Oct-20 21:23 36.688912 -121.605257 282 4992ft 166kts
19-Oct-20 21:24 36.697854 -121.663484 261 4982ft 167kts
19-Oct-20 21:25 36.658643 -121.667999 110 4983ft 176kts
19-Oct-20 21:26 36.662693 -121.608539 48 4991ft 172kts
19-Oct-20 21:27 36.693782 -121.618256 282 4992ft 166kts
19-Oct-20 21:28 36.693435 -121.675148 213 4983ft 172kts
19-Oct-20 21:29 36.666659 -121.637713 96 4991ft 176kts
19-Oct-20 21:30 36.674148 -121.582362 13 4984ft 169kts
19-Oct-20 21:31 36.696934 -121.624179 282 4991ft 166kts
19-Oct-20 21:32 36.689865 -121.676477 194 4986ft 174kts
19-Oct-20 21:33 36.662222 -121.641370 92 4991ft 176kts
19-Oct-20 21:34 36.667581 -121.583236 26 4984ft 170kts
19-Oct-20 21:35 36.701124 -121.604268 282 4992ft 166kts
19-Oct-20 21:36 36.713218 -121.673245 282 4992ft 226kts
19-Oct-20 21:37 36.727339 -121.753278 282 4993ft 230kts
19-Oct-20 21:38 36.741617 -121.831526 282 4996ft 230kts
19-Oct-20 21:39 36.756544 -121.909963 282 4911ft 234kts
19-Oct-20 21:40 36.771463 -121.984980 282 3991ft 195kts
19-Oct-20 21:41 36.782682 -122.050498 283 3082ft 188kts
19-Oct-20 21:42 36.792350 -122.114191 259 2998ft 187kts
19-Oct-20 21:43 36.750469 -122.139146 193 3000ft 169kts
19-Oct-20 21:44 36.709324 -122.134528 143 2997ft 136kts
19-Oct-20 21:45 36.675824 -122.103445 140 3025ft 151kts
19-Oct-20 21:46 36.656898 -122.051727 112 3022ft 174kts
19-Oct-20 21:47 36.633185 -121.981290 112 2481ft 201kts
19-Oct-20 21:48 36.616557 -121.931918 112 1582ft 132kts
19-Oct-20 21:49 36.602027 -121.889144 114 759ft 115kts
19-Oct-20 21:50 36.590900 -121.856009 111 296ft 93kts
19-Oct-20 21:51 36.587127 -121.845810 206 258ft 1kts
19-Oct-20 21:52 36.587974 -121.849718 293 258ft 30kts
19-Oct-20 21:53 36.588724 -121.853413 233 258ft 0kts
19-Oct-20 21:54 36.588724 -121.853413 233 258ft 0kts
19-Oct-20 21:55 36.588724 -121.853413 233 258ft 0kts
19-Oct-20 21:56 36.588724 -121.853413 233 258ft 0kts

Navigation Log

Ident Type
Flight plan parsing failed, navigation log unavailable